createdAt,value
2017-09-07T00:00:19.235Z,100389.14
2017-09-07T00:01:25.655Z,100390.92
2017-09-07T00:02:32.642Z,100386.13
2017-09-07T00:03:38.810Z,100386.02
2017-09-07T00:04:45.080Z,100381.91
2017-09-07T00:05:52.080Z,100383.61
2017-09-07T00:06:58.548Z,100382.25
2017-09-07T00:08:04.756Z,100374.20
2017-09-07T00:09:11.431Z,100376.66
2017-09-07T00:10:17.870Z,100383.00
2017-09-07T00:11:24.841Z,100379.30
2017-09-07T00:12:32.545Z,100378.52
2017-09-07T00:13:38.750Z,100389.43
2017-09-07T00:14:45.172Z,100383.17
2017-09-07T00:15:52.015Z,100381.27
2017-09-07T00:16:58.200Z,100381.66
2017-09-07T00:18:04.504Z,100375.66
2017-09-07T00:19:10.972Z,100376.34
2017-09-07T00:20:17.369Z,100375.52
2017-09-07T00:21:23.591Z,100368.58
2017-09-07T00:22:29.699Z,100373.02
2017-09-07T00:23:35.957Z,100368.17
2017-09-07T00:24:42.284Z,100370.64
2017-09-07T00:25:49.514Z,100370.73
2017-09-07T00:26:55.637Z,100377.06
2017-09-07T00:28:02.309Z,100375.74
2017-09-07T00:29:08.627Z,100369.84
2017-09-07T00:30:15.173Z,100373.83
2017-09-07T00:31:21.891Z,100370.98
2017-09-07T00:32:28.834Z,100374.16
2017-09-07T00:33:34.944Z,100373.30
2017-09-07T00:34:41.240Z,100375.28
2017-09-07T00:35:47.566Z,100375.91
2017-09-07T00:36:54.035Z,100372.32
2017-09-07T00:38:00.319Z,100378.99
2017-09-07T00:39:06.841Z,100372.91
2017-09-07T00:40:13.066Z,100374.94
2017-09-07T00:41:19.212Z,100379.66
2017-09-07T00:42:25.595Z,100379.95
2017-09-07T00:43:32.278Z,100379.48
2017-09-07T00:44:38.465Z,100379.86
2017-09-07T00:45:45.271Z,100385.16
2017-09-07T00:46:51.585Z,100392.27
2017-09-07T00:47:57.928Z,100388.45
2017-09-07T00:49:04.773Z,100388.36
2017-09-07T00:50:11.057Z,100387.28
2017-09-07T00:51:18.496Z,100387.38
2017-09-07T00:52:24.043Z,100388.78
2017-09-07T00:53:29.594Z,100392.97
2017-09-07T00:54:35.438Z,100382.04
2017-09-07T00:55:42.407Z,100380.56
2017-09-07T00:56:49.665Z,100382.36
2017-09-07T00:57:56.345Z,100382.39
2017-09-07T00:59:03.492Z,100381.40
2017-09-07T01:00:09.101Z,100380.30
2017-09-07T01:01:15.803Z,100379.23
2017-09-07T01:02:24.541Z,100381.88
2017-09-07T01:03:31.278Z,100380.20
2017-09-07T01:04:37.730Z,100378.98
2017-09-07T01:05:44.497Z,100381.35
2017-09-07T01:06:51.156Z,100375.42
2017-09-07T01:07:57.876Z,100380.98
2017-09-07T01:09:04.598Z,100382.23
2017-09-07T01:10:11.409Z,100374.66
2017-09-07T01:11:18.553Z,100376.73
2017-09-07T01:12:25.938Z,100378.09
2017-09-07T01:13:32.058Z,100380.73
2017-09-07T01:14:38.555Z,100382.13
2017-09-07T01:15:44.623Z,100379.89
2017-09-07T01:16:50.942Z,100381.52
2017-09-07T01:17:56.954Z,100377.83
2017-09-07T01:19:03.245Z,100376.16
2017-09-07T01:20:08.947Z,100376.35
2017-09-07T01:21:14.656Z,100379.34
2017-09-07T01:22:20.767Z,100372.70
2017-09-07T01:23:26.888Z,100372.20
2017-09-07T01:24:32.558Z,100367.72
2017-09-07T01:25:38.096Z,100366.80
2017-09-07T01:26:44.688Z,100367.41
2017-09-07T01:27:51.570Z,100362.33
2017-09-07T01:28:57.943Z,100368.26
2017-09-07T01:30:05.547Z,100361.70
2017-09-07T01:31:11.958Z,100363.55
2017-09-07T01:32:18.477Z,100369.55
2017-09-07T01:33:25.509Z,100366.05
2017-09-07T01:34:32.279Z,100367.77
2017-09-07T01:35:38.538Z,100364.61
2017-09-07T01:36:44.916Z,100373.75
2017-09-07T01:37:51.183Z,100365.82
2017-09-07T01:38:57.530Z,100369.18
2017-09-07T01:40:03.740Z,100367.41
2017-09-07T01:41:10.999Z,100372.73
2017-09-07T01:42:17.122Z,100369.97
2017-09-07T01:43:23.281Z,100367.17
2017-09-07T01:44:29.535Z,100367.66
2017-09-07T01:45:35.865Z,100369.97
2017-09-07T01:46:42.581Z,100367.14
2017-09-07T01:47:49.434Z,100368.81
2017-09-07T01:48:56.581Z,100370.69
2017-09-07T01:50:02.782Z,100367.89
2017-09-07T01:51:09.856Z,100368.88
2017-09-07T01:52:16.592Z,100369.97
2017-09-07T01:53:22.848Z,100369.31
2017-09-07T01:54:30.743Z,100366.08
2017-09-07T01:55:37.369Z,100366.45
2017-09-07T01:56:44.398Z,100367.34
2017-09-07T01:57:50.595Z,100369.25
2017-09-07T01:58:57.341Z,100368.75
2017-09-07T02:00:04.152Z,100363.32
2017-09-07T02:01:11.042Z,100365.27
2017-09-07T02:02:17.189Z,100366.45
2017-09-07T02:03:23.497Z,100368.45
2017-09-07T02:04:31.092Z,100367.17
2017-09-07T02:05:37.702Z,100367.47
2017-09-07T02:06:43.860Z,100361.98
2017-09-07T02:07:50.918Z,100364.94
2017-09-07T02:08:58.137Z,100372.83
2017-09-07T02:10:04.802Z,100367.90
2017-09-07T02:11:10.989Z,100371.68
2017-09-07T02:12:17.165Z,100364.25
2017-09-07T02:13:23.953Z,100367.53
2017-09-07T02:14:30.402Z,100366.71
2017-09-07T02:15:36.927Z,100373.49
2017-09-07T02:16:44.257Z,100364.18
2017-09-07T02:17:50.851Z,100366.81
2017-09-07T02:18:57.840Z,100362.34
2017-09-07T02:20:05.029Z,100360.20
2017-09-07T02:21:11.905Z,100367.23
2017-09-07T02:22:19.081Z,100370.13
2017-09-07T02:23:25.498Z,100364.87
2017-09-07T02:24:32.112Z,100367.86
2017-09-07T02:25:38.551Z,100368.42
2017-09-07T02:26:44.643Z,100360.36
2017-09-07T02:27:51.844Z,100358.02
2017-09-07T02:28:57.976Z,100359.96
2017-09-07T02:30:04.309Z,100358.41
2017-09-07T02:31:10.592Z,100355.22
2017-09-07T02:32:16.923Z,100364.05
2017-09-07T02:33:23.632Z,100359.08
2017-09-07T02:34:29.749Z,100355.85
2017-09-07T02:35:35.984Z,100359.37
2017-09-07T02:36:42.257Z,100358.06
2017-09-07T02:37:48.903Z,100357.44
2017-09-07T02:38:55.403Z,100350.59
2017-09-07T02:40:01.911Z,100348.91
2017-09-07T02:41:08.955Z,100354.44
2017-09-07T02:42:15.347Z,100356.90
2017-09-07T02:43:22.372Z,100360.85
2017-09-07T02:44:28.702Z,100359.50
2017-09-07T02:45:36.753Z,100358.58
2017-09-07T02:46:43.272Z,100354.59
2017-09-07T02:47:50.300Z,100360.32
2017-09-07T02:48:56.713Z,100355.59
2017-09-07T02:50:03.030Z,100360.33
2017-09-07T02:51:09.552Z,100362.33
2017-09-07T02:52:16.148Z,100361.60
2017-09-07T02:53:22.871Z,100360.05
2017-09-07T02:54:29.380Z,100358.44
2017-09-07T02:55:35.676Z,100362.28
2017-09-07T02:56:42.137Z,100357.28
2017-09-07T02:57:49.115Z,100363.92
2017-09-07T02:58:56.382Z,100359.30
2017-09-07T03:00:03.915Z,100356.99
2017-09-07T03:01:11.468Z,100357.31
2017-09-07T03:02:17.774Z,100353.49
2017-09-07T03:03:23.968Z,100352.45
2017-09-07T03:04:31.495Z,100352.36
2017-09-07T03:05:38.256Z,100353.91
2017-09-07T03:06:44.411Z,100348.94
2017-09-07T03:07:51.073Z,100351.23
2017-09-07T03:08:58.503Z,100346.34
2017-09-07T03:10:04.700Z,100354.00
2017-09-07T03:11:10.884Z,100350.44
2017-09-07T03:12:17.027Z,100346.80
2017-09-07T03:13:23.665Z,100342.95
2017-09-07T03:14:29.939Z,100345.34
2017-09-07T03:15:38.814Z,100343.23
2017-09-07T03:16:45.007Z,100344.39
2017-09-07T03:17:52.079Z,100341.50
2017-09-07T03:18:59.129Z,100336.97
2017-09-07T03:20:05.523Z,100342.55
2017-09-07T03:21:11.715Z,100339.06
2017-09-07T03:22:18.440Z,100340.62
2017-09-07T03:23:25.331Z,100341.61
2017-09-07T03:24:32.531Z,100346.83
2017-09-07T03:25:38.929Z,100347.22
2017-09-07T03:26:47.594Z,100352.30
2017-09-07T03:27:54.016Z,100354.88
2017-09-07T03:29:01.443Z,100348.51
2017-09-07T03:30:07.886Z,100348.27
2017-09-07T03:31:14.890Z,100340.88
2017-09-07T03:32:21.298Z,100345.75
2017-09-07T03:33:27.710Z,100346.98
2017-09-07T03:34:33.979Z,100342.92
2017-09-07T03:35:40.437Z,100342.45
2017-09-07T03:36:47.062Z,100343.00
2017-09-07T03:37:53.417Z,100344.83
2017-09-07T03:38:59.571Z,100351.30
2017-09-07T03:40:06.473Z,100341.80
2017-09-07T03:41:13.251Z,100341.19
2017-09-07T03:42:19.419Z,100345.06
2017-09-07T03:43:28.291Z,100342.30
2017-09-07T03:44:36.372Z,100345.08
2017-09-07T03:46:01.908Z,100341.99
2017-09-07T03:47:30.375Z,100341.99
2017-09-07T03:48:37.963Z,100346.14
2017-09-07T03:49:55.264Z,100345.52
2017-09-07T03:51:03.397Z,100350.16
2017-09-07T03:52:09.789Z,100344.14
2017-09-07T03:53:17.190Z,100344.47
2017-09-07T03:54:23.535Z,100343.28
2017-09-07T03:55:30.366Z,100341.21
2017-09-07T03:56:36.574Z,100338.55
2017-09-07T03:57:42.766Z,100335.34
2017-09-07T03:58:49.207Z,100337.66
2017-09-07T03:59:56.038Z,100332.19
2017-09-07T04:01:02.547Z,100334.76
2017-09-07T04:02:08.756Z,100339.03
2017-09-07T04:03:15.166Z,100329.83
2017-09-07T04:04:21.580Z,100330.42
2017-09-07T04:05:28.481Z,100324.98
2017-09-07T04:06:34.816Z,100324.30
2017-09-07T04:07:41.647Z,100329.69
2017-09-07T04:08:49.033Z,100332.06
2017-09-07T04:09:56.414Z,100327.09
2017-09-07T04:11:02.553Z,100333.21
2017-09-07T04:12:08.838Z,100333.34
2017-09-07T04:13:16.195Z,100331.83
2017-09-07T04:14:22.581Z,100329.53
2017-09-07T04:15:30.133Z,100334.89
2017-09-07T04:16:36.646Z,100334.13
2017-09-07T04:17:43.463Z,100334.79
2017-09-07T04:18:51.015Z,100333.64
2017-09-07T04:19:58.235Z,100334.33
2017-09-07T04:21:04.657Z,100334.70
2017-09-07T04:22:11.077Z,100335.55
2017-09-07T04:23:18.796Z,100334.66
2017-09-07T04:24:26.051Z,100333.27
2017-09-07T04:25:33.479Z,100332.88
2017-09-07T04:26:39.789Z,100332.55
2017-09-07T04:27:47.110Z,100324.91
2017-09-07T04:28:53.384Z,100330.83
2017-09-07T04:30:01.084Z,100323.31
2017-09-07T04:31:10.255Z,100331.78
2017-09-07T04:32:16.466Z,100325.35
2017-09-07T04:33:23.779Z,100327.25
2017-09-07T04:34:30.952Z,100328.14
2017-09-07T04:35:37.849Z,100328.25
2017-09-07T04:36:44.072Z,100326.31
2017-09-07T04:37:50.363Z,100331.27
2017-09-07T04:38:57.309Z,100332.16
2017-09-07T04:40:04.331Z,100333.75
2017-09-07T04:41:10.294Z,100335.73
2017-09-07T04:42:19.219Z,100337.05
2017-09-07T04:43:25.820Z,100337.02
2017-09-07T04:44:32.150Z,100337.17
2017-09-07T04:45:38.755Z,100338.89
2017-09-07T04:46:45.802Z,100336.26
2017-09-07T04:47:53.177Z,100331.06
2017-09-07T04:48:59.339Z,100333.95
2017-09-07T04:50:05.695Z,100336.19
2017-09-07T04:51:13.285Z,100332.89
2017-09-07T04:52:19.560Z,100337.11
2017-09-07T04:53:25.893Z,100339.44
2017-09-07T04:54:32.530Z,100340.11
2017-09-07T04:55:40.373Z,100340.59
2017-09-07T04:56:47.533Z,100338.64
2017-09-07T04:57:54.132Z,100345.37
2017-09-07T04:59:00.645Z,100339.21
2017-09-07T05:00:06.787Z,100335.77
2017-09-07T05:01:12.827Z,100341.39
2017-09-07T05:02:19.166Z,100337.86
2017-09-07T05:03:25.566Z,100340.52
2017-09-07T05:04:31.766Z,100343.05
2017-09-07T05:05:38.111Z,100344.63
2017-09-07T05:06:44.623Z,100342.58
2017-09-07T05:07:50.924Z,100353.11
2017-09-07T05:08:57.647Z,100344.38
2017-09-07T05:10:03.949Z,100345.52
2017-09-07T05:11:10.218Z,100347.81
2017-09-07T05:12:16.304Z,100342.17
2017-09-07T05:13:22.441Z,100342.66
2017-09-07T05:14:29.018Z,100345.36
2017-09-07T05:15:36.176Z,100341.95
2017-09-07T05:16:42.998Z,100344.53
2017-09-07T05:17:49.272Z,100346.80
2017-09-07T05:18:55.370Z,100347.36
2017-09-07T05:20:01.924Z,100349.44
2017-09-07T05:21:09.027Z,100345.13
2017-09-07T05:22:15.167Z,100350.54
2017-09-07T05:23:21.834Z,100344.33
2017-09-07T05:24:28.068Z,100345.47
2017-09-07T05:25:34.747Z,100340.86
2017-09-07T05:26:43.398Z,100347.68
2017-09-07T05:27:51.105Z,100348.87
2017-09-07T05:28:58.121Z,100348.04
2017-09-07T05:30:05.485Z,100349.68
2017-09-07T05:31:12.782Z,100345.59
2017-09-07T05:32:19.821Z,100348.67
2017-09-07T05:33:27.033Z,100352.86
2017-09-07T05:34:33.971Z,100344.52
2017-09-07T05:35:41.059Z,100346.13
2017-09-07T05:36:47.318Z,100346.05
2017-09-07T05:37:54.873Z,100343.53
2017-09-07T05:39:01.255Z,100344.28
2017-09-07T05:40:07.568Z,100354.72
2017-09-07T05:41:13.767Z,100349.55
2017-09-07T05:42:20.215Z,100349.59
2017-09-07T05:43:26.535Z,100352.55
2017-09-07T05:44:34.296Z,100352.20
2017-09-07T05:45:40.270Z,100354.59
2017-09-07T05:46:46.954Z,100347.86
2017-09-07T05:47:54.019Z,100355.00
2017-09-07T05:49:00.846Z,100352.41
2017-09-07T05:50:07.784Z,100353.98
2017-09-07T05:51:14.092Z,100356.84
2017-09-07T05:52:20.419Z,100347.36
2017-09-07T05:53:27.854Z,100351.98
2017-09-07T05:54:35.075Z,100352.86
2017-09-07T05:55:41.367Z,100355.41
2017-09-07T05:56:48.507Z,100357.78
2017-09-07T05:57:56.146Z,100357.27
2017-09-07T05:59:03.021Z,100365.82
2017-09-07T06:00:09.390Z,100364.67
2017-09-07T06:01:15.338Z,100365.13
2017-09-07T06:02:21.652Z,100365.09
2017-09-07T06:03:28.013Z,100361.41
2017-09-07T06:04:34.323Z,100366.22
2017-09-07T06:05:42.037Z,100362.56
2017-09-07T06:06:50.268Z,100359.70
2017-09-07T06:07:56.632Z,100361.02
2017-09-07T06:09:04.557Z,100362.27
2017-09-07T06:10:11.732Z,100360.39
2017-09-07T06:11:18.300Z,100362.83
2017-09-07T06:12:24.656Z,100370.17
2017-09-07T06:13:31.881Z,100360.22
2017-09-07T06:14:38.778Z,100367.81
2017-09-07T06:15:46.740Z,100365.61
2017-09-07T06:16:52.936Z,100360.56
2017-09-07T06:17:59.005Z,100358.52
2017-09-07T06:19:06.546Z,100362.00
2017-09-07T06:20:15.874Z,100363.72
2017-09-07T06:21:23.128Z,100358.42
2017-09-07T06:22:30.283Z,100364.12
2017-09-07T06:23:37.117Z,100356.08
2017-09-07T06:24:43.407Z,100365.41
2017-09-07T06:25:49.768Z,100355.45
2017-09-07T06:26:56.015Z,100359.74
2017-09-07T06:28:02.209Z,100361.31
2017-09-07T06:29:08.397Z,100362.89
2017-09-07T06:30:14.851Z,100355.34
2017-09-07T06:31:23.105Z,100362.86
2017-09-07T06:32:29.498Z,100360.10
2017-09-07T06:33:36.523Z,100353.52
2017-09-07T06:34:44.093Z,100357.10
2017-09-07T06:35:50.601Z,100358.23
2017-09-07T06:36:57.018Z,100362.84
2017-09-07T06:38:03.313Z,100359.80
2017-09-07T06:39:09.852Z,100357.05
2017-09-07T06:40:16.079Z,100366.96
2017-09-07T06:41:22.982Z,100358.75
2017-09-07T06:42:29.193Z,100364.61
2017-09-07T06:43:36.220Z,100357.39
2017-09-07T06:44:42.424Z,100354.48
2017-09-07T06:45:48.628Z,100356.56
2017-09-07T06:46:55.877Z,100356.64
2017-09-07T06:48:02.206Z,100357.02
2017-09-07T06:49:09.493Z,100361.05
2017-09-07T06:50:16.682Z,100355.73
2017-09-07T06:51:22.767Z,100363.38
2017-09-07T06:52:29.333Z,100357.39
2017-09-07T06:53:35.486Z,100352.84
2017-09-07T06:54:41.900Z,100357.23
2017-09-07T06:55:49.983Z,100352.27
2017-09-07T06:56:58.892Z,100353.61
2017-09-07T06:58:06.877Z,100351.17
2017-09-07T06:59:13.942Z,100352.97
2017-09-07T07:00:20.305Z,100361.98
2017-09-07T07:01:27.936Z,100354.64
2017-09-07T07:02:35.111Z,100359.89
2017-09-07T07:03:41.360Z,100355.96
2017-09-07T07:04:48.037Z,100356.61
2017-09-07T07:05:55.115Z,100358.51
2017-09-07T07:07:01.766Z,100356.59
2017-09-07T07:08:07.932Z,100360.25
2017-09-07T07:09:14.931Z,100348.89
2017-09-07T07:10:21.935Z,100359.24
2017-09-07T07:11:27.928Z,100356.01
2017-09-07T07:12:37.420Z,100353.50
2017-09-07T07:13:43.634Z,100355.86
2017-09-07T07:14:50.441Z,100358.27
2017-09-07T07:15:57.392Z,100362.64
2017-09-07T07:17:03.575Z,100357.59
2017-09-07T07:18:09.806Z,100355.81
2017-09-07T07:19:15.909Z,100356.56
2017-09-07T07:20:22.452Z,100362.45
2017-09-07T07:21:29.094Z,100359.33
2017-09-07T07:22:36.169Z,100365.56
2017-09-07T07:23:42.400Z,100359.59
2017-09-07T07:24:49.298Z,100366.27
2017-09-07T07:25:55.903Z,100364.62
2017-09-07T07:27:02.031Z,100369.33
2017-09-07T07:28:08.862Z,100369.97
2017-09-07T07:29:14.970Z,100370.48
2017-09-07T07:30:22.827Z,100367.88
2017-09-07T07:31:28.889Z,100369.20
2017-09-07T07:32:35.331Z,100381.01
2017-09-07T07:33:41.948Z,100368.61
2017-09-07T07:34:48.864Z,100376.63
2017-09-07T07:35:55.785Z,100375.81
2017-09-07T07:37:03.192Z,100379.37
2017-09-07T07:38:09.777Z,100378.97
2017-09-07T07:39:17.873Z,100381.31
2017-09-07T07:40:24.835Z,100380.63
2017-09-07T07:41:31.096Z,100376.67
2017-09-07T07:42:37.668Z,100381.42
2017-09-07T07:43:44.998Z,100381.64
2017-09-07T07:44:51.671Z,100382.13
2017-09-07T07:45:58.131Z,100383.34
2017-09-07T07:47:05.265Z,100385.77
2017-09-07T07:48:11.886Z,100379.99
2017-09-07T07:49:18.812Z,100383.53
2017-09-07T07:50:26.197Z,100378.56
2017-09-07T07:51:32.472Z,100384.70
2017-09-07T07:52:38.862Z,100383.34
2017-09-07T07:53:45.467Z,100372.62
2017-09-07T07:54:51.766Z,100384.08
2017-09-07T07:55:58.316Z,100376.38
2017-09-07T07:57:04.549Z,100389.14
2017-09-07T07:58:11.021Z,100385.44
2017-09-07T07:59:18.641Z,100390.96
2017-09-07T08:00:26.079Z,100390.30
2017-09-07T08:01:32.311Z,100399.63
2017-09-07T08:02:38.557Z,100396.36
2017-09-07T08:03:45.351Z,100389.94
2017-09-07T08:04:51.564Z,100396.19
2017-09-07T08:05:57.889Z,100387.52
2017-09-07T08:07:05.249Z,100396.20
2017-09-07T08:08:11.842Z,100392.56
2017-09-07T08:09:18.728Z,100387.33
2017-09-07T08:10:25.078Z,100379.30
2017-09-07T08:11:31.244Z,100379.72
2017-09-07T08:12:37.796Z,100382.45
2017-09-07T08:13:44.735Z,100383.22
2017-09-07T08:14:50.928Z,100384.75
2017-09-07T08:15:58.788Z,100379.05
2017-09-07T08:17:05.498Z,100382.02
2017-09-07T08:18:11.832Z,100383.11
2017-09-07T08:19:18.340Z,100390.09
2017-09-07T08:20:24.657Z,100376.93
2017-09-07T08:21:31.275Z,100386.55
2017-09-07T08:22:38.180Z,100386.70
2017-09-07T08:23:45.325Z,100384.05
2017-09-07T08:24:51.646Z,100383.59
2017-09-07T08:25:58.181Z,100390.73
2017-09-07T08:27:05.912Z,100389.27
2017-09-07T08:28:12.840Z,100389.52
2017-09-07T08:29:19.075Z,100385.08
2017-09-07T08:30:25.301Z,100393.08
2017-09-07T08:31:32.880Z,100391.15
2017-09-07T08:32:40.214Z,100390.56
2017-09-07T08:33:46.420Z,100393.20
2017-09-07T08:34:53.151Z,100394.25
2017-09-07T08:35:59.061Z,100394.53
2017-09-07T08:37:05.482Z,100393.74
2017-09-07T08:38:11.896Z,100389.67
2017-09-07T08:39:18.840Z,100388.47
2017-09-07T08:40:25.424Z,100390.53
2017-09-07T08:41:32.572Z,100386.83
2017-09-07T08:42:38.880Z,100385.77
2017-09-07T08:43:45.432Z,100389.58
2017-09-07T08:44:52.736Z,100384.82
2017-09-07T08:45:58.884Z,100384.45
2017-09-07T08:47:05.273Z,100391.91
2017-09-07T08:48:13.004Z,100390.92
2017-09-07T08:49:19.895Z,100390.54
2017-09-07T08:50:26.459Z,100386.92
2017-09-07T08:51:33.765Z,100380.80
2017-09-07T08:52:39.983Z,100383.23
2017-09-07T08:53:46.184Z,100379.77
2017-09-07T08:54:52.629Z,100380.42
2017-09-07T08:55:59.110Z,100379.11
2017-09-07T08:57:05.531Z,100385.04
2017-09-07T08:58:11.868Z,100385.22
2017-09-07T08:59:18.173Z,100385.16
2017-09-07T09:00:24.975Z,100379.34
2017-09-07T09:01:31.501Z,100370.80
2017-09-07T09:02:37.710Z,100374.79
2017-09-07T09:03:43.990Z,100374.95
2017-09-07T09:04:51.601Z,100376.89
2017-09-07T09:05:58.792Z,100371.30
2017-09-07T09:07:05.815Z,100369.05
2017-09-07T09:08:12.747Z,100370.33
2017-09-07T09:09:20.271Z,100370.39
2017-09-07T09:10:26.997Z,100373.25
2017-09-07T09:11:34.521Z,100385.72
2017-09-07T09:12:41.583Z,100375.12
2017-09-07T09:13:48.281Z,100380.08
2017-09-07T09:14:55.301Z,100380.84
2017-09-07T09:16:01.631Z,100374.14
2017-09-07T09:17:07.742Z,100377.33
2017-09-07T09:18:14.975Z,100380.71
2017-09-07T09:19:22.217Z,100373.40
2017-09-07T09:20:28.669Z,100386.98
2017-09-07T09:21:35.544Z,100379.07
2017-09-07T09:22:41.735Z,100383.08
2017-09-07T09:23:47.765Z,100387.56
2017-09-07T09:24:54.731Z,100383.78
2017-09-07T09:26:00.947Z,100383.13
2017-09-07T09:27:08.302Z,100382.05
2017-09-07T09:28:14.786Z,100378.48
2017-09-07T09:29:20.848Z,100377.71
2017-09-07T09:30:27.065Z,100381.04
2017-09-07T09:31:33.790Z,100376.44
2017-09-07T09:32:40.001Z,100372.11
2017-09-07T09:33:46.411Z,100378.02
2017-09-07T09:34:52.613Z,100386.25
2017-09-07T09:35:59.118Z,100383.55
2017-09-07T09:37:05.378Z,100376.16
2017-09-07T09:38:11.551Z,100382.97
2017-09-07T09:39:18.684Z,100374.16
2017-09-07T09:40:24.793Z,100380.73
2017-09-07T09:43:19.219Z,100380.19
2017-09-07T09:44:25.408Z,100378.94
2017-09-07T09:45:32.430Z,100376.69
2017-09-07T09:46:38.578Z,100376.83
2017-09-07T09:47:44.677Z,100382.40
2017-09-07T09:48:50.789Z,100390.73
2017-09-07T09:49:56.997Z,100381.22
2017-09-07T09:51:02.853Z,100388.58
2017-09-07T09:52:09.063Z,100382.47
2017-09-07T09:53:15.062Z,100388.41
2017-09-07T09:54:21.198Z,100375.43
2017-09-07T09:55:27.326Z,100377.38
2017-09-07T09:56:33.392Z,100382.22
2017-09-07T09:57:39.580Z,100387.69
2017-09-07T09:58:46.166Z,100387.52
2017-09-07T09:59:52.391Z,100378.67
2017-09-07T10:00:58.518Z,100371.83
2017-09-07T10:02:04.468Z,100376.96
2017-09-07T10:03:11.264Z,100373.50
2017-09-07T10:04:17.736Z,100367.59
2017-09-07T10:05:23.816Z,100367.43
2017-09-07T10:06:29.933Z,100373.79
2017-09-07T10:07:36.815Z,100384.17
2017-09-07T10:08:43.264Z,100375.89
2017-09-07T10:09:49.570Z,100374.45
2017-09-07T10:10:55.768Z,100379.20
2017-09-07T10:12:02.791Z,100370.77
2017-09-07T10:13:11.214Z,100377.44
2017-09-07T10:14:21.400Z,100379.13
2017-09-07T10:15:30.082Z,100391.41
2017-09-07T10:16:37.406Z,100385.22
2017-09-07T10:17:46.991Z,100381.23
2017-09-07T10:18:57.297Z,100380.11
2017-09-07T10:20:04.640Z,100381.41
2017-09-07T10:21:12.720Z,100381.52
2017-09-07T10:22:21.449Z,100380.65
2017-09-07T10:23:29.815Z,100373.27
2017-09-07T10:24:37.888Z,100378.16
2017-09-07T10:25:44.450Z,100386.34
2017-09-07T10:26:53.837Z,100380.73
2017-09-07T10:28:01.272Z,100378.69
2017-09-07T10:29:08.428Z,100376.39
2017-09-07T10:30:16.068Z,100370.84
2017-09-07T10:31:23.944Z,100370.82
2017-09-07T10:32:32.250Z,100370.42
2017-09-07T10:33:39.565Z,100370.49
2017-09-07T10:34:46.635Z,100371.83
2017-09-07T10:35:54.382Z,100370.89
2017-09-07T10:37:02.798Z,100369.05
2017-09-07T10:38:10.304Z,100369.11
2017-09-07T10:39:17.960Z,100368.59
2017-09-07T10:40:25.982Z,100374.30
2017-09-07T10:41:32.833Z,100369.52
2017-09-07T10:42:40.161Z,100372.97
2017-09-07T10:43:49.408Z,100373.53
2017-09-07T10:44:56.620Z,100371.52
2017-09-07T10:46:03.542Z,100363.98
2017-09-07T10:47:11.828Z,100373.86
2017-09-07T10:48:19.656Z,100368.79
2017-09-07T10:49:25.988Z,100370.56
2017-09-07T10:50:33.491Z,100365.66
2017-09-07T10:51:41.655Z,100365.56
2017-09-07T10:52:48.950Z,100365.64
2017-09-07T10:53:55.123Z,100367.66
2017-09-07T10:55:02.833Z,100357.23
2017-09-07T10:56:11.953Z,100358.02
2017-09-07T10:57:19.946Z,100360.75
2017-09-07T10:58:29.054Z,100358.24
2017-09-07T10:59:35.907Z,100357.50
2017-09-07T11:00:42.785Z,100360.16
2017-09-07T11:01:51.617Z,100355.68
2017-09-07T11:02:59.051Z,100358.76
2017-09-07T11:04:06.208Z,100356.02
2017-09-07T11:05:12.855Z,100364.31
2017-09-07T11:06:19.942Z,100362.37
2017-09-07T11:07:26.722Z,100359.64
2017-09-07T11:08:33.992Z,100359.14
2017-09-07T11:09:41.157Z,100361.95
2017-09-07T11:10:48.515Z,100359.31
2017-09-07T11:11:56.860Z,100359.82
2017-09-07T11:13:04.961Z,100355.50
2017-09-07T11:14:13.512Z,100354.22
2017-09-07T11:15:22.063Z,100353.98
2017-09-07T11:16:29.532Z,100350.84
2017-09-07T11:17:36.011Z,100355.91
2017-09-07T11:18:46.169Z,100353.88
2017-09-07T11:19:57.732Z,100358.29
2017-09-07T11:21:06.570Z,100354.42
2017-09-07T11:22:15.235Z,100357.89
2017-09-07T11:23:23.011Z,100351.05
2017-09-07T11:24:30.152Z,100362.39
2017-09-07T11:25:38.260Z,100357.86
2017-09-07T11:26:46.273Z,100355.86
2017-09-07T11:27:54.113Z,100352.31
2017-09-07T11:29:02.212Z,100354.67
2017-09-07T11:30:10.946Z,100352.41
2017-09-07T11:31:19.714Z,100354.12
2017-09-07T11:32:29.391Z,100345.11
2017-09-07T11:33:37.782Z,100354.45
2017-09-07T11:34:46.190Z,100351.14
2017-09-07T11:35:54.488Z,100348.16
2017-09-07T11:37:02.699Z,100348.78
2017-09-07T11:38:10.711Z,100343.06
2017-09-07T11:39:18.758Z,100344.88
2017-09-07T11:40:26.186Z,100346.48
2017-09-07T11:41:34.245Z,100332.55
2017-09-07T11:42:42.259Z,100353.03
2017-09-07T11:43:50.605Z,100346.30
2017-09-07T11:44:58.216Z,100341.69
2017-09-07T11:46:05.215Z,100337.65
2017-09-07T11:47:12.467Z,100336.66
2017-09-07T11:48:20.111Z,100345.48
2017-09-07T11:49:26.731Z,100341.13
2017-09-07T11:50:34.081Z,100339.93
2017-09-07T11:51:41.663Z,100328.95
2017-09-07T11:52:49.120Z,100333.05
2017-09-07T11:53:56.003Z,100325.42
2017-09-07T11:55:03.194Z,100334.56
2017-09-07T11:56:12.206Z,100335.36
2017-09-07T11:57:19.078Z,100335.65
2017-09-07T11:58:27.994Z,100336.82
2017-09-07T11:59:36.252Z,100326.97
2017-09-07T12:00:43.851Z,100326.41
2017-09-07T12:01:51.947Z,100327.02
2017-09-07T12:02:58.643Z,100326.41
2017-09-07T12:04:04.738Z,100318.29
2017-09-07T12:05:10.830Z,100319.78
2017-09-07T12:06:17.141Z,100311.80
2017-09-07T12:07:23.232Z,100318.22
2017-09-07T12:08:29.280Z,100307.53
2017-09-07T12:09:35.528Z,100314.10
2017-09-07T12:10:41.790Z,100309.40
2017-09-07T12:11:48.118Z,100313.25
2017-09-07T12:12:54.647Z,100320.94
2017-09-07T12:14:00.789Z,100316.28
2017-09-07T12:15:06.922Z,100318.87
2017-09-07T12:16:13.848Z,100316.97
2017-09-07T12:17:21.647Z,100310.47
2017-09-07T12:18:30.623Z,100316.33
2017-09-07T12:19:39.124Z,100317.91
2017-09-07T12:20:47.216Z,100315.35
2017-09-07T12:21:55.243Z,100319.30
2017-09-07T12:23:02.862Z,100320.98
2017-09-07T12:24:10.138Z,100323.83
2017-09-07T12:25:18.240Z,100317.65
2017-09-07T12:26:26.090Z,100324.39
2017-09-07T12:27:33.754Z,100314.17
2017-09-07T12:28:42.413Z,100323.20
2017-09-07T12:29:50.269Z,100322.87
2017-09-07T12:30:58.699Z,100319.55
2017-09-07T12:32:06.586Z,100324.47
2017-09-07T12:33:13.760Z,100318.19
2017-09-07T12:34:22.931Z,100328.64
2017-09-07T12:35:29.559Z,100319.11
2017-09-07T12:36:38.353Z,100319.66
2017-09-07T12:37:44.899Z,100312.34
2017-09-07T12:38:51.025Z,100318.21
2017-09-07T12:39:57.135Z,100314.58
2017-09-07T12:41:03.164Z,100316.30
2017-09-07T12:42:09.501Z,100318.98
2017-09-07T12:43:15.592Z,100318.31
2017-09-07T12:44:21.785Z,100315.23
2017-09-07T12:45:27.510Z,100321.69